sensor_id;sensor_type;location;lat;lon;timestamp;P1;P4;P2;P0;N10;N4;N25;N1;N05;TS
78707;SPS30;68037;51.978;5.650;2023-05-16T00:01:42;3.9;3.8;3.4;2.9;;;;3.0;36.0;
78707;SPS30;68037;51.978;5.650;2023-05-16T00:04:12;3.7;3.5;3.2;2.7;;;;2.0;37.0;
78707;SPS30;68037;51.978;5.650;2023-05-16T00:06:42;3.8;3.6;3.3;2.8;;;;2.0;37.0;
78707;SPS30;68037;51.978;5.650;2023-05-16T00:09:12;4.1;3.9;3.5;2.9;;;;2.0;37.0;
78707;SPS30;68037;51.978;5.650;2023-05-16T00:11:41;4.3;4.1;3.7;3.1;;;;2.0;41.0;
78707;SPS30;68037;51.978;5.650;2023-05-16T00:14:11;3.8;3.6;3.2;2.7;;;;2.0;44.0;
78707;SPS30;68037;51.978;5.650;2023-05-16T00:16:41;4.1;3.9;3.5;2.9;;;;2.0;45.0;
78707;SPS30;68037;51.978;5.650;2023-05-16T00:19:10;4.1;3.9;3.5;2.8;;;;2.0;54.0;
78707;SPS30;68037;51.978;5.650;2023-05-16T00:21:40;4.2;4.0;3.7;3.1;;;;2.0;59.0;
78707;SPS30;68037;51.978;5.650;2023-05-16T00:24:10;4.1;3.9;3.6;3.0;;;;2.0;57.0;
78707;SPS30;68037;51.978;5.650;2023-05-16T00:26:40;3.8;3.6;3.3;2.8;;;;2.0;56.0;
78707;SPS30;68037;51.978;5.650;2023-05-16T00:29:10;5.0;4.8;4.2;3.4;;;;2.0;57.0;
78707;SPS30;68037;51.978;5.650;2023-05-16T00:31:39;4.0;3.8;3.4;2.8;;;;2.0;60.0;
78707;SPS30;68037;51.978;5.650;2023-05-16T00:34:09;4.1;3.9;3.6;3.0;;;;2.0;62.0;
78707;SPS30;68037;51.978;5.650;2023-05-16T00:36:38;4.7;4.5;4.2;3.5;;;;2.0;68.0;
78707;SPS30;68037;51.978;5.650;2023-05-16T00:39:08;4.1;4.0;3.6;3.0;;;;2.0;68.0;
78707;SPS30;68037;51.978;5.650;2023-05-16T00:41:39;3.5;3.4;3.1;2.6;;;;2.0;69.0;
78707;SPS30;68037;51.978;5.650;2023-05-16T00:44:10;3.9;3.7;3.4;2.8;;;;2.0;88.0;
78707;SPS30;68037;51.978;5.650;2023-05-16T00:46:40;4.0;3.8;3.4;2.9;;;;2.0;107.0;
78707;SPS30;68037;51.978;5.650;2023-05-16T00:49:12;4.0;3.9;3.5;3.0;;;;2.0;102.0;
78707;SPS30;68037;51.978;5.650;2023-05-16T00:51:42;3.9;3.8;3.5;2.9;;;;2.0;117.0;
78707;SPS30;68037;51.978;5.650;2023-05-16T00:54:12;4.3;4.1;3.8;3.2;;;;2.0;118.0;
78707;SPS30;68037;51.978;5.650;2023-05-16T00:56:41;4.4;4.3;4.0;3.4;;;;2.0;130.0;
78707;SPS30;68037;51.978;5.650;2023-05-16T00:59:13;4.2;4.1;3.8;3.2;;;;1.0;134.0;
78707;SPS30;68037;51.978;5.650;2023-05-16T01:01:45;4.3;4.1;3.8;3.3;;;;1.0;133.0;
78707;SPS30;68037;51.978;5.650;2023-05-16T01:04:16;4.0;3.8;3.5;3.0;;;;1.0;143.0;
78707;SPS30;68037;51.978;5.650;2023-05-16T01:06:47;4.1;4.0;3.7;3.2;;;;1.0;144.0;
78707;SPS30;68037;51.978;5.650;2023-05-16T01:09:19;3.3;3.2;3.0;2.6;;;;1.0;144.0;
78707;SPS30;68037;51.978;5.650;2023-05-16T01:11:50;4.0;3.8;3.5;2.9;;;;1.0;140.0;
78707;SPS30;68037;51.978;5.650;2023-05-16T01:14:28;3.6;3.4;3.2;2.7;;;;1.0;138.0;
78707;SPS30;68037;51.978;5.650;2023-05-16T01:17:10;3.4;3.3;3.0;2.5;;;;1.0;137.0;
78707;SPS30;68037;51.978;5.650;2023-05-16T01:19:58;3.7;3.6;3.3;2.8;;;;1.0;136.0;
78707;SPS30;68037;51.978;5.650;2023-05-16T01:22:56;3.7;3.5;3.2;2.7;;;;1.0;133.0;
78707;SPS30;68037;51.978;5.650;2023-05-16T01:25:55;3.5;3.4;3.1;2.6;;;;1.0;132.0;
78707;SPS30;68037;51.978;5.650;2023-05-16T01:28:30;3.6;3.4;3.1;2.5;;;;1.0;131.0;
78707;SPS30;68037;51.978;5.650;2023-05-16T01:31:01;3.5;3.3;2.9;2.3;;;;1.0;131.0;
78707;SPS30;68037;51.978;5.650;2023-05-16T01:33:30;3.8;3.6;3.2;2.5;;;;1.0;131.0;
78707;SPS30;68037;51.978;5.650;2023-05-16T01:36:01;3.7;3.5;3.0;2.4;;;;1.0;131.0;
78707;SPS30;68037;51.978;5.650;2023-05-16T01:38:40;3.9;3.7;3.2;2.5;;;;1.0;130.0;
78707;SPS30;68037;51.978;5.650;2023-05-16T01:41:20;3.6;3.4;2.9;2.3;;;;1.0;124.0;
78707;SPS30;68037;51.978;5.650;2023-05-16T01:43:58;3.6;3.4;3.0;2.3;;;;1.0;112.0;
78707;SPS30;68037;51.978;5.650;2023-05-16T01:46:32;3.3;3.1;2.7;2.1;;;;1.0;89.0;
78707;SPS30;68037;51.978;5.650;2023-05-16T01:49:12;3.3;3.1;2.7;2.1;;;;1.0;94.0;
78707;SPS30;68037;51.978;5.650;2023-05-16T01:51:48;3.6;3.4;3.0;2.4;;;;1.0;98.0;
78707;SPS30;68037;51.978;5.650;2023-05-16T01:54:19;3.9;3.6;3.0;2.3;;;;1.0;100.0;
78707;SPS30;68037;51.978;5.650;2023-05-16T01:56:53;3.1;2.9;2.4;1.8;;;;1.0;93.0;
78707;SPS30;68037;51.978;5.650;2023-05-16T01:59:25;3.4;3.2;2.7;2.0;;;;1.0;95.0;
78707;SPS30;68037;51.978;5.650;2023-05-16T02:01:57;4.0;3.7;3.1;2.3;;;;1.0;94.0;
78707;SPS30;68037;51.978;5.650;2023-05-16T02:04:27;4.6;4.3;3.6;2.6;;;;1.0;96.0;
78707;SPS30;68037;51.978;5.650;2023-05-16T02:06:56;3.6;3.4;2.8;2.0;;;;1.0;127.0;
78707;SPS30;68037;51.978;5.650;2023-05-16T02:09:28;4.4;4.0;3.3;2.3;;;;1.0;121.0;
78707;SPS30;68037;51.978;5.650;2023-05-16T02:11:58;4.1;3.8;3.1;2.2;;;;1.0;118.0;
78707;SPS30;68037;51.978;5.650;2023-05-16T02:14:29;4.0;3.7;3.2;2.4;;;;1.0;114.0;
78707;SPS30;68037;51.978;5.650;2023-05-16T02:16:59;4.7;4.4;3.7;2.8;;;;1.0;121.0;
78707;SPS30;68037;51.978;5.650;2023-05-16T02:19:28;4.0;3.7;3.2;2.5;;;;1.0;134.0;
78707;SPS30;68037;51.978;5.650;2023-05-16T02:21:58;4.1;3.8;3.3;2.5;;;;1.0;145.0;
78707;SPS30;68037;51.978;5.650;2023-05-16T02:24:27;4.0;3.8;3.3;2.6;;;;1.0;140.0;
78707;SPS30;68037;51.978;5.650;2023-05-16T02:26:57;4.0;3.7;3.2;2.4;;;;1.0;135.0;
78707;SPS30;68037;51.978;5.650;2023-05-16T02:29:27;3.4;3.2;2.8;2.2;;;;1.0;131.0;
78707;SPS30;68037;51.978;5.650;2023-05-16T02:31:58;3.8;3.6;3.1;2.5;;;;1.0;131.0;
78707;SPS30;68037;51.978;5.650;2023-05-16T02:34:28;3.3;3.1;2.8;2.2;;;;1.0;123.0;
78707;SPS30;68037;51.978;5.650;2023-05-16T02:36:57;4.2;4.0;3.4;2.6;;;;1.0;109.0;
78707;SPS30;68037;51.978;5.650;2023-05-16T02:39:27;3.7;3.5;3.0;2.3;;;;1.0;100.0;
78707;SPS30;68037;51.978;5.650;2023-05-16T02:41:58;4.4;4.0;3.3;2.4;;;;1.0;87.0;
78707;SPS30;68037;51.978;5.650;2023-05-16T02:44:28;4.1;3.8;3.2;2.3;;;;1.0;87.0;
78707;SPS30;68037;51.978;5.650;2023-05-16T02:46:59;4.2;3.9;3.2;2.3;;;;1.0;88.0;
78707;SPS30;68037;51.978;5.650;2023-05-16T02:49:29;3.9;3.6;3.0;2.1;;;;1.0;88.0;
78707;SPS30;68037;51.978;5.650;2023-05-16T02:51:59;3.4;3.2;2.6;1.9;;;;1.0;82.0;
78707;SPS30;68037;51.978;5.650;2023-05-16T02:54:28;4.8;4.4;3.5;2.3;;;;1.0;79.0;
78707;SPS30;68037;51.978;5.650;2023-05-16T02:56:57;3.7;3.3;2.7;1.8;;;;1.0;76.0;
78707;SPS30;68037;51.978;5.650;2023-05-16T02:59:27;3.6;3.3;2.8;2.0;;;;1.0;75.0;
78707;SPS30;68037;51.978;5.650;2023-05-16T03:01:58;4.1;3.8;3.1;2.2;;;;1.0;73.0;
78707;SPS30;68037;51.978;5.650;2023-05-16T03:04:28;4.0;3.6;2.9;2.0;;;;1.0;73.0;
78707;SPS30;68037;51.978;5.650;2023-05-16T03:06:58;3.8;3.5;2.8;1.9;;;;1.0;73.0;
78707;SPS30;68037;51.978;5.650;2023-05-16T03:09:28;3.6;3.3;2.6;1.7;;;;1.0;74.0;
78707;SPS30;68037;51.978;5.650;2023-05-16T03:11:57;3.9;3.6;2.9;2.0;;;;1.0;75.0;
78707;SPS30;68037;51.978;5.650;2023-05-16T03:14:27;4.2;3.9;3.2;2.2;;;;1.0;75.0;
78707;SPS30;68037;51.978;5.650;2023-05-16T03:16:57;3.4;3.1;2.6;1.8;;;;1.0;76.0;
78707;SPS30;68037;51.978;5.650;2023-05-16T03:19:26;5.6;5.1;4.2;2.9;;;;1.0;78.0;
78707;SPS30;68037;51.978;5.650;2023-05-16T03:21:57;3.7;3.5;2.9;2.1;;;;1.0;83.0;
78707;SPS30;68037;51.978;5.650;2023-05-16T03:24:26;3.7;3.5;2.9;2.2;;;;1.0;85.0;
78707;SPS30;68037;51.978;5.650;2023-05-16T03:26:57;4.6;4.3;3.6;2.6;;;;1.0;109.0;
78707;SPS30;68037;51.978;5.650;2023-05-16T03:29:27;4.6;4.3;3.5;2.5;;;;1.0;109.0;
78707;SPS30;68037;51.978;5.650;2023-05-16T03:31:58;4.2;3.9;3.2;2.2;;;;1.0;103.0;
78707;SPS30;68037;51.978;5.650;2023-05-16T03:34:31;3.7;3.4;2.9;2.1;;;;1.0;116.0;
78707;SPS30;68037;51.978;5.650;2023-05-16T03:37:00;3.6;3.3;2.8;2.2;;;;1.0;121.0;
78707;SPS30;68037;51.978;5.650;2023-05-16T03:39:30;3.9;3.6;3.1;2.4;;;;1.0;122.0;
78707;SPS30;68037;51.978;5.650;2023-05-16T03:41:59;3.5;3.3;2.8;2.2;;;;1.0;133.0;
78707;SPS30;68037;51.978;5.650;2023-05-16T03:44:29;3.8;3.6;3.0;2.2;;;;1.0;189.0;
78707;SPS30;68037;51.978;5.650;2023-05-16T03:46:59;4.1;3.8;3.2;2.2;;;;1.0;187.0;
78707;SPS30;68037;51.978;5.650;2023-05-16T03:49:29;3.8;3.5;3.0;2.1;;;;1.0;164.0;
78707;SPS30;68037;51.978;5.650;2023-05-16T03:51:59;5.2;4.9;4.1;3.0;;;;1.0;124.0;
78707;SPS30;68037;51.978;5.650;2023-05-16T03:54:28;4.5;4.2;3.6;2.7;;;;1.0;122.0;
78707;SPS30;68037;51.978;5.650;2023-05-16T03:56:57;4.1;3.8;3.3;2.6;;;;1.0;113.0;
78707;SPS30;68037;51.978;5.650;2023-05-16T03:59:27;4.4;4.2;3.7;3.0;;;;1.0;96.0;
78707;SPS30;68037;51.978;5.650;2023-05-16T04:01:58;4.0;3.8;3.4;2.8;;;;1.0;107.0;
78707;SPS30;68037;51.978;5.650;2023-05-16T04:04:28;4.4;4.2;3.8;3.1;;;;1.0;95.0;
78707;SPS30;68037;51.978;5.650;2023-05-16T04:06:57;4.7;4.4;3.9;3.1;;;;1.0;82.0;
78707;SPS30;68037;51.978;5.650;2023-05-16T04:09:27;4.1;3.9;3.4;2.8;;;;1.0;88.0;
78707;SPS30;68037;51.978;5.650;2023-05-16T04:11:56;4.1;3.9;3.5;2.8;;;;1.0;108.0;
78707;SPS30;68037;51.978;5.650;2023-05-16T04:14:27;4.1;3.9;3.5;2.9;;;;1.0;110.0;
78707;SPS30;68037;51.978;5.650;2023-05-16T04:16:58;4.0;3.8;3.3;2.6;;;;1.0;88.0;
78707;SPS30;68037;51.978;5.650;2023-05-16T04:19:28;4.4;4.1;3.6;2.8;;;;1.0;81.0;
78707;SPS30;68037;51.978;5.650;2023-05-16T04:21:57;4.9;4.6;4.1;3.2;;;;1.0;85.0;
78707;SPS30;68037;51.978;5.650;2023-05-16T04:24:28;3.7;3.5;3.2;2.6;;;;1.0;84.0;
78707;SPS30;68037;51.978;5.650;2023-05-16T04:26:58;3.7;3.5;3.2;2.6;;;;1.0;84.0;
78707;SPS30;68037;51.978;5.650;2023-05-16T04:29:28;4.3;4.1;3.7;3.0;;;;1.0;85.0;
78707;SPS30;68037;51.978;5.650;2023-05-16T04:31:58;4.1;3.8;3.3;2.6;;;;1.0;81.0;
78707;SPS30;68037;51.978;5.650;2023-05-16T04:34:28;4.3;4.0;3.5;2.7;;;;1.0;81.0;
78707;SPS30;68037;51.978;5.650;2023-05-16T04:37:00;5.1;4.8;4.3;3.4;;;;1.0;82.0;
78707;SPS30;68037;51.978;5.650;2023-05-16T04:39:30;3.4;3.2;2.9;2.3;;;;2.0;82.0;
78707;SPS30;68037;51.978;5.650;2023-05-16T04:41:59;3.8;3.6;3.3;2.7;;;;2.0;99.0;
78707;SPS30;68037;51.978;5.650;2023-05-16T04:44:29;3.4;3.3;2.9;2.4;;;;2.0;130.0;
78707;SPS30;68037;51.978;5.650;2023-05-16T04:47:00;4.0;3.8;3.4;2.8;;;;2.0;131.0;
78707;SPS30;68037;51.978;5.650;2023-05-16T04:49:30;3.4;3.2;2.8;2.2;;;;1.0;143.0;
78707;SPS30;68037;51.978;5.650;2023-05-16T04:51:59;4.0;3.7;3.2;2.4;;;;1.0;142.0;
78707;SPS30;68037;51.978;5.650;2023-05-16T04:54:29;3.8;3.6;3.0;2.2;;;;1.0;153.0;
78707;SPS30;68037;51.978;5.650;2023-05-16T04:57:01;4.1;3.9;3.3;2.5;;;;1.0;153.0;
78707;SPS30;68037;51.978;5.650;2023-05-16T04:59:30;4.4;4.1;3.5;2.7;;;;1.0;145.0;
78707;SPS30;68037;51.978;5.650;2023-05-16T05:02:00;3.5;3.3;2.8;2.0;;;;1.0;126.0;
78707;SPS30;68037;51.978;5.650;2023-05-16T05:04:32;4.3;4.0;3.4;2.5;;;;1.0;120.0;
78707;SPS30;68037;51.978;5.650;2023-05-16T05:07:02;4.0;3.8;3.2;2.4;;;;1.0;145.0;
78707;SPS30;68037;51.978;5.650;2023-05-16T05:09:32;4.3;4.0;3.4;2.5;;;;1.0;131.0;
78707;SPS30;68037;51.978;5.650;2023-05-16T05:12:01;3.9;3.6;3.1;2.4;;;;1.0;99.0;
78707;SPS30;68037;51.978;5.650;2023-05-16T05:14:31;3.7;3.5;3.0;2.3;;;;1.0;135.0;
78707;SPS30;68037;51.978;5.650;2023-05-16T05:17:00;3.5;3.3;2.9;2.2;;;;2.0;201.0;
78707;SPS30;68037;51.978;5.650;2023-05-16T05:19:30;3.6;3.4;3.0;2.4;;;;2.0;163.0;
78707;SPS30;68037;51.978;5.650;2023-05-16T05:21:59;4.7;4.5;3.9;3.1;;;;2.0;112.0;
78707;SPS30;68037;51.978;5.650;2023-05-16T05:24:29;4.7;4.5;3.9;3.0;;;;2.0;91.0;
78707;SPS30;68037;51.978;5.650;2023-05-16T05:27:00;4.0;3.8;3.3;2.6;;;;2.0;95.0;
78707;SPS30;68037;51.978;5.650;2023-05-16T05:29:31;4.0;3.8;3.3;2.7;;;;2.0;90.0;
78707;SPS30;68037;51.978;5.650;2023-05-16T05:32:00;3.8;3.6;3.2;2.5;;;;2.0;203.0;
78707;SPS30;68037;51.978;5.650;2023-05-16T05:34:30;4.0;3.8;3.4;2.7;;;;2.0;147.0;
78707;SPS30;68037;51.978;5.650;2023-05-16T05:36:59;3.4;3.3;3.0;2.5;;;;2.0;141.0;
78707;SPS30;68037;51.978;5.650;2023-05-16T05:39:29;4.6;4.5;4.0;3.4;;;;2.0;118.0;
78707;SPS30;68037;51.978;5.650;2023-05-16T05:41:58;3.5;3.3;3.0;2.4;;;;2.0;108.0;
78707;SPS30;68037;51.978;5.650;2023-05-16T05:44:28;3.6;3.4;3.0;2.3;;;;2.0;93.0;
78707;SPS30;68037;51.978;5.650;2023-05-16T05:46:57;3.5;3.3;2.8;2.2;;;;2.0;76.0;
78707;SPS30;68037;51.978;5.650;2023-05-16T05:49:27;3.5;3.3;2.8;2.2;;;;2.0;89.0;
78707;SPS30;68037;51.978;5.650;2023-05-16T05:51:58;3.4;3.2;2.7;2.0;;;;2.0;478.0;
78707;SPS30;68037;51.978;5.650;2023-05-16T05:54:30;3.2;3.0;2.5;1.7;;;;2.0;324.0;
78707;SPS30;68037;51.978;5.650;2023-05-16T05:56:59;3.8;3.5;2.8;1.9;;;;2.0;246.0;
78707;SPS30;68037;51.978;5.650;2023-05-16T05:59:29;3.6;3.3;2.7;1.9;;;;2.0;312.0;
78707;SPS30;68037;51.978;5.650;2023-05-16T06:02:00;4.5;4.1;3.4;2.5;;;;2.0;171.0;
78707;SPS30;68037;51.978;5.650;2023-05-16T06:04:29;3.8;3.5;2.9;2.1;;;;2.0;126.0;
78707;SPS30;68037;51.978;5.650;2023-05-16T06:06:59;4.4;4.0;3.4;2.4;;;;2.0;121.0;
78707;SPS30;68037;51.978;5.650;2023-05-16T06:09:30;4.1;3.8;3.2;2.3;;;;2.0;132.0;
78707;SPS30;68037;51.978;5.650;2023-05-16T06:12:02;4.1;3.8;3.2;2.3;;;;2.0;111.0;
78707;SPS30;68037;51.978;5.650;2023-05-16T06:14:32;3.3;3.0;2.5;1.9;;;;2.0;96.0;
78707;SPS30;68037;51.978;5.650;2023-05-16T06:17:02;4.0;3.7;3.1;2.2;;;;2.0;81.0;
78707;SPS30;68037;51.978;5.650;2023-05-16T06:19:31;4.1;3.8;3.2;2.3;;;;2.0;84.0;
78707;SPS30;68037;51.978;5.650;2023-05-16T06:22:01;3.4;3.2;2.7;1.9;;;;2.0;66.0;
78707;SPS30;68037;51.978;5.650;2023-05-16T06:24:30;3.9;3.6;2.9;2.0;;;;2.0;146.0;
78707;SPS30;68037;51.978;5.650;2023-05-16T06:27:00;3.9;3.6;3.0;2.0;;;;2.0;117.0;
78707;SPS30;68037;51.978;5.650;2023-05-16T06:29:30;3.6;3.3;2.7;1.9;;;;2.0;66.0;
78707;SPS30;68037;51.978;5.650;2023-05-16T06:31:59;3.4;3.1;2.6;1.9;;;;2.0;92.0;
78707;SPS30;68037;51.978;5.650;2023-05-16T06:34:29;4.3;4.0;3.2;2.3;;;;2.0;62.0;
78707;SPS30;68037;51.978;5.650;2023-05-16T06:36:58;3.1;2.9;2.4;1.7;;;;2.0;84.0;
78707;SPS30;68037;51.978;5.650;2023-05-16T06:39:30;3.3;3.1;2.5;1.8;;;;2.0;102.0;
78707;SPS30;68037;51.978;5.650;2023-05-16T06:42:00;3.4;3.2;2.6;1.9;;;;2.0;53.0;
78707;SPS30;68037;51.978;5.650;2023-05-16T06:44:30;2.4;2.3;1.9;1.3;;;;2.0;54.0;
78707;SPS30;68037;51.978;5.650;2023-05-16T06:46:59;2.7;2.5;2.1;1.5;;;;2.0;38.0;
78707;SPS30;68037;51.978;5.650;2023-05-16T06:49:29;3.4;3.2;2.7;1.9;;;;2.0;46.0;
78707;SPS30;68037;51.978;5.650;2023-05-16T06:51:59;2.9;2.7;2.2;1.6;;;;2.0;48.0;
78707;SPS30;68037;51.978;5.650;2023-05-16T06:54:29;2.6;2.4;2.0;1.4;;;;2.0;46.0;
78707;SPS30;68037;51.978;5.650;2023-05-16T06:56:58;2.9;2.7;2.2;1.6;;;;2.0;58.0;
78707;SPS30;68037;51.978;5.650;2023-05-16T06:59:29;2.8;2.5;2.1;1.4;;;;2.0;63.0;
78707;SPS30;68037;51.978;5.650;2023-05-16T07:01:59;3.3;3.0;2.4;1.7;;;;2.0;48.0;
78707;SPS30;68037;51.978;5.650;2023-05-16T07:04:30;3.6;3.3;2.7;1.8;;;;2.0;47.0;
78707;SPS30;68037;51.978;5.650;2023-05-16T07:07:00;2.8;2.5;2.0;1.3;;;;2.0;44.0;
78707;SPS30;68037;51.978;5.650;2023-05-16T07:09:30;3.5;3.2;2.6;1.7;;;;2.0;39.0;
78707;SPS30;68037;51.978;5.650;2023-05-16T07:11:59;3.1;2.9;2.3;1.5;;;;2.0;43.0;
78707;SPS30;68037;51.978;5.650;2023-05-16T07:14:29;2.4;2.2;1.8;1.2;;;;2.0;28.0;
78707;SPS30;68037;51.978;5.650;2023-05-16T07:16:58;2.9;2.6;2.1;1.5;;;;2.0;28.0;
78707;SPS30;68037;51.978;5.650;2023-05-16T07:19:28;2.3;2.1;1.7;1.2;;;;2.0;27.0;
78707;SPS30;68037;51.978;5.650;2023-05-16T07:21:58;2.7;2.5;2.0;1.4;;;;2.0;28.0;
78707;SPS30;68037;51.978;5.650;2023-05-16T07:24:27;2.3;2.1;1.8;1.2;;;;2.0;27.0;
78707;SPS30;68037;51.978;5.650;2023-05-16T07:26:57;3.0;2.8;2.3;1.6;;;;2.0;30.0;
78707;SPS30;68037;51.978;5.650;2023-05-16T07:29:27;2.9;2.7;2.1;1.4;;;;2.0;40.0;
78707;SPS30;68037;51.978;5.650;2023-05-16T07:31:58;2.4;2.2;1.7;1.2;;;;2.0;44.0;
78707;SPS30;68037;51.978;5.650;2023-05-16T07:34:28;2.8;2.5;2.0;1.3;;;;2.0;39.0;
78707;SPS30;68037;51.978;5.650;2023-05-16T07:36:57;2.1;1.9;1.5;0.9;;;;2.0;32.0;
78707;SPS30;68037;51.978;5.650;2023-05-16T07:39:27;2.4;2.2;1.7;1.1;;;;2.0;30.0;
78707;SPS30;68037;51.978;5.650;2023-05-16T07:41:57;2.9;2.6;2.0;1.3;;;;2.0;34.0;
78707;SPS30;68037;51.978;5.650;2023-05-16T07:44:26;2.5;2.3;1.8;1.1;;;;2.0;36.0;
78707;SPS30;68037;51.978;5.650;2023-05-16T07:46:56;2.8;2.6;2.0;1.3;;;;2.0;45.0;
78707;SPS30;68037;51.978;5.650;2023-05-16T07:49:25;2.3;2.1;1.7;1.1;;;;2.0;44.0;
78707;SPS30;68037;51.978;5.650;2023-05-16T07:51:55;1.9;1.7;1.4;0.9;;;;2.0;38.0;
78707;SPS30;68037;51.978;5.650;2023-05-16T07:54:24;1.7;1.6;1.2;0.8;;;;2.0;46.0;
78707;SPS30;68037;51.978;5.650;2023-05-16T07:56:54;2.5;2.3;1.8;1.2;;;;2.0;38.0;
78707;SPS30;68037;51.978;5.650;2023-05-16T07:59:23;2.0;1.8;1.5;1.0;;;;2.0;43.0;
78707;SPS30;68037;51.978;5.650;2023-05-16T08:01:53;2.7;2.4;2.0;1.3;;;;2.0;55.0;
78707;SPS30;68037;51.978;5.650;2023-05-16T08:04:23;2.0;1.9;1.5;1.0;;;;2.0;44.0;
78707;SPS30;68037;51.978;5.650;2023-05-16T08:06:52;2.3;2.2;1.8;1.2;;;;2.0;41.0;
78707;SPS30;68037;51.978;5.650;2023-05-16T08:09:22;1.9;1.8;1.4;0.9;;;;2.0;42.0;
78707;SPS30;68037;51.978;5.650;2023-05-16T08:11:52;3.1;2.8;2.3;1.5;;;;2.0;51.0;
78707;SPS30;68037;51.978;5.650;2023-05-16T08:14:21;2.8;2.5;2.0;1.3;;;;2.0;48.0;
78707;SPS30;68037;51.978;5.650;2023-05-16T08:16:51;2.2;2.0;1.6;1.1;;;;2.0;47.0;
78707;SPS30;68037;51.978;5.650;2023-05-16T08:19:21;2.4;2.2;1.8;1.3;;;;2.0;47.0;
78707;SPS30;68037;51.978;5.650;2023-05-16T08:21:51;1.7;1.6;1.3;0.9;;;;2.0;52.0;
78707;SPS30;68037;51.978;5.650;2023-05-16T08:24:21;2.4;2.2;1.9;1.3;;;;2.0;39.0;
78707;SPS30;68037;51.978;5.650;2023-05-16T08:26:50;1.4;1.3;1.1;0.8;;;;2.0;44.0;
78707;SPS30;68037;51.978;5.650;2023-05-16T08:29:22;1.6;1.5;1.3;0.9;;;;2.0;49.0;
78707;SPS30;68037;51.978;5.650;2023-05-16T08:31:51;1.2;1.1;0.9;0.7;;;;2.0;43.0;
78707;SPS30;68037;51.978;5.650;2023-05-16T08:34:21;1.7;1.6;1.3;0.9;;;;2.0;31.0;
78707;SPS30;68037;51.978;5.650;2023-05-16T08:36:50;1.2;1.1;0.9;0.7;;;;2.0;32.0;
78707;SPS30;68037;51.978;5.650;2023-05-16T08:39:20;2.2;2.1;1.7;1.2;;;;2.0;34.0;
78707;SPS30;68037;51.978;5.650;2023-05-16T08:41:50;1.8;1.7;1.4;1.0;;;;2.0;39.0;
78707;SPS30;68037;51.978;5.650;2023-05-16T08:44:19;2.0;1.8;1.5;1.1;;;;2.0;67.0;
78707;SPS30;68037;51.978;5.650;2023-05-16T08:46:50;1.5;1.4;1.1;0.8;;;;2.0;69.0;
78707;SPS30;68037;51.978;5.650;2023-05-16T08:49:21;1.1;1.0;0.8;0.6;;;;2.0;81.0;
78707;SPS30;68037;51.978;5.650;2023-05-16T08:51:56;1.3;1.2;1.0;0.7;;;;2.0;85.0;
78707;SPS30;68037;51.978;5.650;2023-05-16T08:54:27;1.2;1.1;0.9;0.7;;;;2.0;73.0;
78707;SPS30;68037;51.978;5.650;2023-05-16T08:56:59;0.9;0.9;0.8;0.6;;;;2.0;75.0;
78707;SPS30;68037;51.978;5.650;2023-05-16T08:59:29;1.1;1.1;0.9;0.7;;;;2.0;73.0;
78707;SPS30;68037;51.978;5.650;2023-05-16T09:02:00;1.1;1.1;0.9;0.7;;;;2.0;83.0;
78707;SPS30;68037;51.978;5.650;2023-05-16T09:04:30;1.3;1.2;1.1;0.8;;;;2.0;63.0;
78707;SPS30;68037;51.978;5.650;2023-05-16T09:06:59;1.6;1.5;1.3;1.0;;;;2.0;151.0;
78707;SPS30;68037;51.978;5.650;2023-05-16T09:09:29;1.7;1.6;1.4;1.1;;;;1.0;103.0;
78707;SPS30;68037;51.978;5.650;2023-05-16T09:11:59;1.5;1.4;1.2;0.9;;;;1.0;76.0;
78707;SPS30;68037;51.978;5.650;2023-05-16T09:14:28;1.9;1.8;1.5;1.2;;;;1.0;75.0;
78707;SPS30;68037;51.978;5.650;2023-05-16T09:17:04;1.6;1.5;1.3;1.0;;;;1.0;81.0;
78707;SPS30;68037;51.978;5.650;2023-05-16T09:19:38;2.2;2.1;1.8;1.4;;;;1.0;94.0;
78707;SPS30;68037;51.978;5.650;2023-05-16T09:22:10;2.3;2.1;1.8;1.3;;;;1.0;62.0;
78707;SPS30;68037;51.978;5.650;2023-05-16T09:24:42;2.3;2.1;1.8;1.4;;;;1.0;92.0;
78707;SPS30;68037;51.978;5.650;2023-05-16T09:27:13;1.6;1.5;1.2;0.9;;;;1.0;73.0;
78707;SPS30;68037;51.978;5.650;2023-05-16T09:29:43;2.2;2.1;1.7;1.2;;;;1.0;65.0;
78707;SPS30;68037;51.978;5.650;2023-05-16T09:32:24;2.6;2.4;2.0;1.5;;;;1.0;62.0;
78707;SPS30;68037;51.978;5.650;2023-05-16T09:34:54;2.3;2.1;1.8;1.4;;;;1.0;62.0;
78707;SPS30;68037;51.978;5.650;2023-05-16T09:37:24;2.0;1.8;1.6;1.1;;;;1.0;64.0;
78707;SPS30;68037;51.978;5.650;2023-05-16T09:39:54;2.3;2.2;1.8;1.4;;;;1.0;66.0;
78707;SPS30;68037;51.978;5.650;2023-05-16T09:42:24;2.7;2.5;2.2;1.7;;;;1.0;70.0;
78707;SPS30;68037;51.978;5.650;2023-05-16T09:44:55;2.4;2.2;1.9;1.4;;;;1.0;80.0;
78707;SPS30;68037;51.978;5.650;2023-05-16T09:47:26;2.4;2.2;1.9;1.4;;;;1.0;79.0;
78707;SPS30;68037;51.978;5.650;2023-05-16T09:49:56;2.4;2.2;1.8;1.3;;;;1.0;77.0;
78707;SPS30;68037;51.978;5.650;2023-05-16T09:52:27;2.4;2.2;1.8;1.3;;;;1.0;77.0;
78707;SPS30;68037;51.978;5.650;2023-05-16T09:54:57;2.6;2.4;1.9;1.3;;;;1.0;54.0;
78707;SPS30;68037;51.978;5.650;2023-05-16T09:57:27;1.9;1.8;1.4;0.9;;;;1.0;52.0;
78707;SPS30;68037;51.978;5.650;2023-05-16T09:59:57;2.7;2.5;2.0;1.3;;;;1.0;57.0;
78707;SPS30;68037;51.978;5.650;2023-05-16T10:02:31;2.8;2.6;2.0;1.3;;;;1.0;76.0;
78707;SPS30;68037;51.978;5.650;2023-05-16T10:05:01;4.2;3.8;3.0;1.9;;;;1.0;72.0;
78707;SPS30;68037;51.978;5.650;2023-05-16T10:07:31;3.0;2.7;2.1;1.4;;;;1.0;68.0;
78707;SPS30;68037;51.978;5.650;2023-05-16T10:10:04;2.5;2.3;1.8;1.2;;;;1.0;68.0;
78707;SPS30;68037;51.978;5.650;2023-05-16T10:12:35;2.6;2.4;1.9;1.2;;;;1.0;72.0;
78707;SPS30;68037;51.978;5.650;2023-05-16T10:15:06;2.1;1.9;1.5;1.0;;;;1.0;59.0;
78707;SPS30;68037;51.978;5.650;2023-05-16T10:17:39;3.1;2.8;2.3;1.5;;;;1.0;57.0;
78707;SPS30;68037;51.978;5.650;2023-05-16T10:20:11;1.9;1.7;1.4;1.0;;;;1.0;58.0;
78707;SPS30;68037;51.978;5.650;2023-05-16T10:22:42;2.1;2.0;1.6;1.1;;;;1.0;60.0;
78707;SPS30;68037;51.978;5.650;2023-05-16T10:25:14;2.0;1.8;1.5;1.0;;;;1.0;60.0;
78707;SPS30;68037;51.978;5.650;2023-05-16T10:27:53;1.6;1.5;1.2;0.8;;;;1.0;52.0;
78707;SPS30;68037;51.978;5.650;2023-05-16T10:30:24;1.9;1.7;1.4;0.9;;;;1.0;57.0;
78707;SPS30;68037;51.978;5.650;2023-05-16T10:32:55;2.5;2.2;1.8;1.2;;;;1.0;55.0;
78707;SPS30;68037;51.978;5.650;2023-05-16T10:35:28;2.1;2.0;1.6;1.0;;;;1.0;53.0;
78707;SPS30;68037;51.978;5.650;2023-05-16T10:38:01;2.1;1.9;1.5;1.0;;;;1.0;51.0;
78707;SPS30;68037;51.978;5.650;2023-05-16T10:40:35;2.1;1.9;1.5;1.0;;;;1.0;44.0;
78707;SPS30;68037;51.978;5.650;2023-05-16T10:43:07;2.5;2.3;1.8;1.3;;;;1.0;48.0;
78707;SPS30;68037;51.978;5.650;2023-05-16T10:45:40;2.0;1.8;1.5;1.0;;;;1.0;70.0;
78707;SPS30;68037;51.978;5.650;2023-05-16T10:48:11;2.0;1.9;1.5;1.0;;;;1.0;70.0;
78707;SPS30;68037;51.978;5.650;2023-05-16T10:50:42;2.7;2.5;2.0;1.3;;;;1.0;83.0;
78707;SPS30;68037;51.978;5.650;2023-05-16T10:53:14;2.6;2.4;1.9;1.3;;;;1.0;86.0;
78707;SPS30;68037;51.978;5.650;2023-05-16T10:55:50;2.4;2.2;1.8;1.2;;;;1.0;81.0;
78707;SPS30;68037;51.978;5.650;2023-05-16T10:58:46;2.2;2.0;1.7;1.2;;;;1.0;80.0;
78707;SPS30;68037;51.978;5.650;2023-05-16T11:01:17;2.0;1.8;1.5;1.0;;;;1.0;75.0;
78707;SPS30;68037;51.978;5.650;2023-05-16T11:04:00;2.0;1.8;1.5;1.0;;;;1.0;77.0;
78707;SPS30;68037;51.978;5.650;2023-05-16T11:06:32;1.7;1.5;1.2;0.9;;;;1.0;64.0;
78707;SPS30;68037;51.978;5.650;2023-05-16T11:09:07;2.6;2.4;2.0;1.3;;;;1.0;55.0;
78707;SPS30;68037;51.978;5.650;2023-05-16T11:11:58;1.8;1.7;1.4;1.0;;;;1.0;52.0;
78707;SPS30;68037;51.978;5.650;2023-05-16T11:14:33;2.0;1.8;1.5;1.0;;;;1.0;54.0;
78707;SPS30;68037;51.978;5.650;2023-05-16T11:17:07;1.7;1.5;1.2;0.8;;;;1.0;47.0;
78707;SPS30;68037;51.978;5.650;2023-05-16T11:19:43;1.9;1.7;1.4;0.9;;;;1.0;52.0;
78707;SPS30;68037;51.978;5.650;2023-05-16T11:22:23;2.2;2.0;1.6;1.1;;;;1.0;79.0;
78707;SPS30;68037;51.978;5.650;2023-05-16T11:24:58;2.2;2.0;1.6;1.1;;;;1.0;90.0;
78707;SPS30;68037;51.978;5.650;2023-05-16T11:27:31;1.8;1.6;1.3;0.9;;;;1.0;101.0;
78707;SPS30;68037;51.978;5.650;2023-05-16T11:30:10;2.1;1.9;1.6;1.1;;;;1.0;91.0;
78707;SPS30;68037;51.978;5.650;2023-05-16T11:32:42;1.8;1.6;1.3;1.0;;;;1.0;72.0;
78707;SPS30;68037;51.978;5.650;2023-05-16T11:35:17;2.2;2.0;1.7;1.2;;;;1.0;78.0;
78707;SPS30;68037;51.978;5.650;2023-05-16T11:37:47;1.8;1.7;1.4;1.0;;;;1.0;81.0;
78707;SPS30;68037;51.978;5.650;2023-05-16T11:40:17;1.8;1.7;1.4;1.0;;;;1.0;90.0;
78707;SPS30;68037;51.978;5.650;2023-05-16T11:42:47;2.2;2.0;1.7;1.3;;;;1.0;88.0;
78707;SPS30;68037;51.978;5.650;2023-05-16T11:45:17;1.8;1.7;1.4;1.1;;;;1.0;88.0;
78707;SPS30;68037;51.978;5.650;2023-05-16T11:47:48;1.8;1.6;1.4;1.0;;;;1.0;96.0;
78707;SPS30;68037;51.978;5.650;2023-05-16T11:50:19;2.1;2.0;1.7;1.3;;;;1.0;112.0;
78707;SPS30;68037;51.978;5.650;2023-05-16T11:52:50;2.3;2.1;1.7;1.3;;;;1.0;126.0;
78707;SPS30;68037;51.978;5.650;2023-05-16T11:55:24;1.4;1.3;1.1;0.8;;;;1.0;128.0;
78707;SPS30;68037;51.978;5.650;2023-05-16T11:57:56;2.0;1.9;1.6;1.2;;;;1.0;148.0;
78707;SPS30;68037;51.978;5.650;2023-05-16T12:00:26;2.4;2.3;2.0;1.5;;;;1.0;140.0;
78707;SPS30;68037;51.978;5.650;2023-05-16T12:03:01;2.5;2.3;2.0;1.5;;;;1.0;178.0;
78707;SPS30;68037;51.978;5.650;2023-05-16T12:05:32;2.2;2.1;1.8;1.3;;;;1.0;332.0;
78707;SPS30;68037;51.978;5.650;2023-05-16T12:08:02;1.4;1.3;1.1;0.8;;;;1.0;166.0;
78707;SPS30;68037;51.978;5.650;2023-05-16T12:10:32;1.3;1.2;1.0;0.8;;;;1.0;143.0;
78707;SPS30;68037;51.978;5.650;2023-05-16T12:13:02;1.7;1.6;1.4;1.1;;;;1.0;197.0;
78707;SPS30;68037;51.978;5.650;2023-05-16T12:15:32;1.3;1.3;1.1;0.8;;;;1.0;133.0;
78707;SPS30;68037;51.978;5.650;2023-05-16T12:18:02;1.6;1.5;1.3;1.0;;;;1.0;153.0;
78707;SPS30;68037;51.978;5.650;2023-05-16T12:20:32;1.5;1.4;1.2;0.9;;;;1.0;134.0;
78707;SPS30;68037;51.978;5.650;2023-05-16T12:23:02;1.3;1.2;1.1;0.8;;;;1.0;129.0;
78707;SPS30;68037;51.978;5.650;2023-05-16T12:25:32;1.5;1.4;1.2;0.9;;;;1.0;136.0;
78707;SPS30;68037;51.978;5.650;2023-05-16T12:28:08;1.6;1.5;1.3;1.0;;;;1.0;112.0;